createdAt,value
2023-04-26T00:02:00.813Z,4.53
2023-04-26T00:04:29.228Z,3.73
2023-04-26T00:06:56.728Z,3.70
2023-04-26T00:09:24.078Z,4.50
2023-04-26T00:11:51.366Z,3.97
2023-04-26T00:14:18.600Z,3.67
2023-04-26T00:16:46.217Z,3.87
2023-04-26T00:19:13.536Z,3.43
2023-04-26T00:21:40.976Z,3.73
2023-04-26T00:24:08.627Z,3.93
2023-04-26T00:26:36.246Z,3.60
2023-04-26T00:29:05.239Z,4.60
2023-04-26T00:31:32.541Z,3.40
2023-04-26T00:33:59.718Z,3.33
2023-04-26T00:36:27.768Z,3.93
2023-04-26T00:38:55.177Z,3.83
2023-04-26T00:41:22.695Z,5.07
2023-04-26T00:43:50.008Z,4.10
2023-04-26T00:46:17.496Z,3.70
2023-04-26T00:48:45.107Z,3.97
2023-04-26T00:51:12.513Z,5.37
2023-04-26T00:53:39.758Z,5.27
2023-04-26T00:56:13.896Z,4.70
2023-04-26T00:58:41.447Z,5.10
2023-04-26T01:01:09.936Z,4.80
2023-04-26T01:03:37.236Z,5.43
2023-04-26T01:06:04.593Z,4.77
2023-04-26T01:08:31.761Z,4.17
2023-04-26T01:10:59.624Z,4.40
2023-04-26T01:13:27.067Z,4.80
2023-04-26T01:15:54.535Z,4.13
2023-04-26T01:18:21.711Z,3.87
2023-04-26T01:20:49.481Z,3.80
2023-04-26T01:23:17.212Z,4.50
2023-04-26T01:25:44.400Z,4.80
2023-04-26T01:28:11.745Z,4.60
2023-04-26T01:30:38.942Z,4.30
2023-04-26T01:33:06.534Z,4.70
2023-04-26T01:35:33.787Z,4.10
2023-04-26T01:38:00.961Z,4.47
2023-04-26T01:40:28.140Z,4.90
2023-04-26T01:42:55.287Z,4.87
2023-04-26T01:45:22.395Z,4.53
2023-04-26T01:47:49.680Z,4.80
2023-04-26T01:50:16.877Z,4.63
2023-04-26T01:52:44.062Z,4.30
2023-04-26T01:55:11.309Z,5.47
2023-04-26T01:57:38.481Z,4.43
2023-04-26T02:00:06.002Z,4.67
2023-04-26T02:02:33.194Z,4.57
2023-04-26T02:05:00.489Z,4.50
2023-04-26T02:07:27.690Z,4.53
2023-04-26T02:09:54.826Z,5.07
2023-04-26T02:12:22.032Z,4.87
2023-04-26T02:14:49.471Z,4.93
2023-04-26T02:17:17.303Z,4.97
2023-04-26T02:19:44.482Z,4.93
2023-04-26T02:22:11.810Z,4.80
2023-04-26T02:24:38.947Z,4.57
2023-04-26T02:27:06.076Z,4.83
2023-04-26T02:29:43.911Z,5.37
2023-04-26T02:32:11.903Z,5.13
2023-04-26T02:34:39.171Z,5.70
2023-04-26T02:37:07.444Z,5.67
2023-04-26T02:39:34.635Z,5.37
2023-04-26T02:42:01.805Z,5.60
2023-04-26T02:44:32.021Z,5.90
2023-04-26T02:46:59.203Z,6.43
2023-04-26T02:49:26.428Z,7.13
2023-04-26T02:51:53.687Z,6.63
2023-04-26T02:54:20.888Z,6.27
2023-04-26T02:56:48.361Z,6.40
2023-04-26T02:59:15.862Z,6.43
2023-04-26T03:01:43.312Z,6.20
2023-04-26T03:04:11.291Z,5.90
2023-04-26T03:06:38.567Z,7.07
2023-04-26T03:09:08.310Z,6.07
2023-04-26T03:11:35.459Z,5.37
2023-04-26T03:14:02.631Z,5.60
2023-04-26T03:16:29.871Z,6.50
2023-04-26T03:18:57.077Z,8.17
2023-04-26T03:21:24.199Z,6.73
2023-04-26T03:23:51.381Z,6.90
2023-04-26T03:26:18.613Z,8.13
2023-04-26T03:28:45.828Z,7.03
2023-04-26T03:31:12.947Z,8.37
2023-04-26T03:33:40.093Z,8.63
2023-04-26T03:36:07.404Z,6.90
2023-04-26T03:38:34.530Z,7.47
2023-04-26T03:41:01.942Z,6.83
2023-04-26T03:43:29.130Z,7.70
2023-04-26T03:45:56.369Z,8.20
2023-04-26T03:48:23.528Z,7.83
2023-04-26T03:50:51.042Z,8.87
2023-04-26T03:53:18.632Z,8.67
2023-04-26T03:55:46.017Z,9.33
2023-04-26T03:58:14.063Z,9.30
2023-04-26T04:00:43.642Z,10.20
2023-04-26T04:03:11.429Z,9.30
2023-04-26T04:05:39.049Z,11.77
2023-04-26T04:08:06.618Z,10.67
2023-04-26T04:10:33.895Z,8.77
2023-04-26T04:13:01.049Z,9.50
2023-04-26T04:15:28.234Z,10.17
2023-04-26T04:17:55.552Z,9.87
2023-04-26T04:20:22.753Z,9.13
2023-04-26T04:22:51.370Z,8.43
2023-04-26T04:25:21.145Z,8.33
2023-04-26T04:27:52.249Z,7.80
2023-04-26T04:30:19.581Z,7.53
2023-04-26T04:32:47.185Z,7.13
2023-04-26T04:35:14.980Z,7.47
2023-04-26T04:37:44.101Z,7.63
2023-04-26T04:40:13.422Z,8.17
2023-04-26T04:42:40.895Z,7.23
2023-04-26T04:45:08.646Z,7.37
2023-04-26T04:47:37.819Z,7.87
2023-04-26T04:50:08.302Z,7.50
2023-04-26T04:52:36.108Z,6.73
2023-04-26T04:55:04.329Z,7.00
2023-04-26T04:57:32.471Z,7.03
2023-04-26T05:00:07.049Z,6.97
2023-04-26T05:02:34.323Z,7.10
2023-04-26T05:05:02.104Z,7.47
2023-04-26T05:07:29.542Z,7.30
2023-04-26T05:09:56.756Z,8.10
2023-04-26T05:12:23.931Z,8.07
2023-04-26T05:14:51.283Z,8.70
2023-04-26T05:17:18.638Z,9.23
2023-04-26T05:19:46.013Z,10.13
2023-04-26T05:22:18.628Z,11.00
2023-04-26T05:24:52.006Z,12.13
2023-04-26T05:27:19.740Z,11.27
2023-04-26T05:29:47.114Z,10.63
2023-04-26T05:32:14.266Z,9.90
2023-04-26T05:34:42.095Z,9.13
2023-04-26T05:37:09.520Z,8.83
2023-04-26T05:39:37.047Z,8.90
2023-04-26T05:42:04.371Z,9.77
2023-04-26T05:44:31.602Z,10.77
2023-04-26T05:46:58.913Z,9.73
2023-04-26T05:49:26.393Z,10.23
2023-04-26T05:51:53.723Z,11.00
2023-04-26T05:54:22.142Z,10.27
2023-04-26T05:56:49.354Z,9.77
2023-04-26T05:59:16.742Z,9.77
2023-04-26T06:01:43.964Z,9.10
2023-04-26T06:04:11.477Z,9.47
2023-04-26T06:06:39.589Z,9.17
2023-04-26T06:09:06.833Z,10.80
2023-04-26T06:11:34.016Z,9.03
2023-04-26T06:14:01.249Z,10.30
2023-04-26T06:16:28.524Z,10.43
2023-04-26T06:18:55.792Z,11.17
2023-04-26T06:21:22.961Z,11.17
2023-04-26T06:23:50.596Z,10.77
2023-04-26T06:26:19.583Z,11.63
2023-04-26T06:28:46.951Z,12.57
2023-04-26T06:31:14.259Z,11.03
2023-04-26T06:33:41.593Z,11.17
2023-04-26T06:36:13.286Z,11.43
2023-04-26T06:38:40.634Z,11.33
2023-04-26T06:41:08.449Z,11.13
2023-04-26T06:43:35.616Z,10.07
2023-04-26T06:46:02.844Z,10.20
2023-04-26T06:48:30.038Z,11.10
2023-04-26T06:50:57.192Z,9.43
2023-04-26T06:53:24.376Z,10.40
2023-04-26T06:55:53.408Z,10.00
2023-04-26T06:58:21.328Z,9.43
2023-04-26T07:00:48.631Z,10.87
2023-04-26T07:03:16.210Z,9.57
2023-04-26T07:05:43.652Z,8.00
2023-04-26T07:08:11.111Z,8.80
2023-04-26T07:10:40.126Z,9.30
2023-04-26T07:13:09.380Z,9.30
2023-04-26T07:15:37.018Z,6.43
2023-04-26T07:18:04.336Z,6.57
2023-04-26T07:20:31.624Z,2.73
2023-04-26T07:22:58.791Z,4.50
2023-04-26T07:25:25.976Z,3.77
2023-04-26T07:27:53.314Z,3.37
2023-04-26T07:30:23.353Z,4.23
2023-04-26T07:32:53.756Z,2.60
2023-04-26T07:35:20.955Z,2.27
2023-04-26T07:37:48.366Z,2.63
2023-04-26T07:40:15.774Z,3.60
2023-04-26T07:42:43.001Z,4.10
2023-04-26T07:45:10.601Z,3.07
2023-04-26T07:47:37.985Z,2.83
2023-04-26T07:50:05.756Z,3.07
2023-04-26T07:52:32.983Z,2.63
2023-04-26T07:55:00.166Z,3.50
2023-04-26T07:57:27.375Z,3.10
2023-04-26T07:59:54.560Z,3.20
2023-04-26T08:02:29.682Z,3.30
2023-04-26T08:05:04.638Z,2.80
2023-04-26T08:07:31.954Z,3.00
2023-04-26T08:09:59.279Z,3.17
2023-04-26T08:12:26.664Z,3.27
2023-04-26T08:14:54.128Z,2.30
2023-04-26T08:17:21.349Z,3.17
2023-04-26T08:19:48.672Z,3.17
2023-04-26T08:22:15.846Z,2.80
2023-04-26T08:24:43.078Z,3.00
2023-04-26T08:27:10.360Z,2.20
2023-04-26T08:29:37.530Z,2.43
2023-04-26T08:32:04.820Z,2.10
2023-04-26T08:34:32.127Z,2.07
2023-04-26T08:36:59.299Z,1.60
2023-04-26T08:39:26.572Z,4.03
2023-04-26T08:41:58.171Z,2.63
2023-04-26T08:44:26.063Z,2.57
2023-04-26T08:46:56.090Z,4.43
2023-04-26T08:49:26.051Z,3.13
2023-04-26T08:51:54.380Z,2.60
2023-04-26T08:54:22.156Z,2.30
2023-04-26T08:56:49.693Z,1.97
2023-04-26T08:59:16.975Z,1.90
2023-04-26T09:01:45.023Z,1.83
2023-04-26T09:04:13.070Z,2.30
2023-04-26T09:06:40.584Z,2.63
2023-04-26T09:09:09.514Z,2.53
2023-04-26T09:11:55.882Z,2.23
2023-04-26T09:14:23.239Z,2.33
2023-04-26T09:16:52.233Z,2.50
2023-04-26T09:19:19.565Z,2.27
2023-04-26T09:21:47.713Z,2.73
2023-04-26T09:24:15.325Z,2.67
2023-04-26T09:26:42.829Z,3.10
2023-04-26T09:29:13.862Z,3.63
2023-04-26T09:31:50.804Z,2.57
2023-04-26T09:34:20.551Z,2.17
2023-04-26T09:36:48.591Z,3.10
2023-04-26T09:39:15.770Z,2.90
2023-04-26T09:41:44.728Z,3.00
2023-04-26T09:44:24.071Z,3.07
2023-04-26T09:47:08.850Z,3.37
2023-04-26T09:49:45.425Z,3.20
2023-04-26T09:52:12.696Z,3.37
2023-04-26T09:54:41.109Z,2.90
2023-04-26T09:57:08.366Z,3.33
2023-04-26T09:59:46.791Z,2.50
2023-04-26T10:02:18.739Z,2.30
2023-04-26T10:04:47.778Z,3.53
2023-04-26T10:07:16.069Z,3.33
2023-04-26T10:09:43.572Z,3.80
2023-04-26T10:12:14.537Z,2.63
2023-04-26T10:14:42.673Z,3.20
2023-04-26T10:17:09.857Z,2.87
2023-04-26T10:19:37.698Z,2.07
2023-04-26T10:22:06.246Z,2.57
2023-04-26T10:24:35.127Z,2.90
2023-04-26T10:27:04.688Z,3.30
2023-04-26T10:29:50.915Z,3.57
2023-04-26T10:32:18.695Z,2.53
2023-04-26T10:34:46.206Z,2.27
2023-04-26T10:37:18.517Z,1.90
2023-04-26T10:39:47.014Z,2.20
2023-04-26T10:42:27.530Z,3.27
2023-04-26T10:44:59.634Z,2.63
2023-04-26T10:47:34.337Z,2.80
2023-04-26T10:50:10.139Z,3.70
2023-04-26T10:53:05.645Z,2.07
2023-04-26T10:55:43.183Z,2.10
2023-04-26T10:58:33.686Z,2.70
2023-04-26T11:01:19.507Z,2.13
2023-04-26T11:04:10.429Z,2.77
2023-04-26T11:06:53.689Z,2.20
2023-04-26T11:09:40.824Z,2.50
2023-04-26T11:12:12.982Z,2.90
2023-04-26T11:14:41.803Z,2.70
2023-04-26T11:17:12.926Z,3.53
2023-04-26T11:19:41.898Z,2.73
2023-04-26T11:22:09.151Z,2.70
2023-04-26T11:24:36.858Z,2.63
2023-04-26T11:27:12.903Z,3.17
2023-04-26T11:29:40.153Z,2.70
2023-04-26T11:32:07.208Z,2.50
2023-04-26T11:34:39.205Z,2.67
2023-04-26T11:37:06.912Z,2.60
2023-04-26T11:39:34.621Z,2.67
2023-04-26T11:42:09.107Z,2.77
2023-04-26T11:44:37.400Z,2.47
2023-04-26T11:47:06.118Z,2.73
2023-04-26T11:49:41.735Z,2.83
2023-04-26T11:52:09.765Z,2.83
2023-04-26T11:54:37.954Z,3.17
2023-04-26T11:57:17.226Z,3.27
2023-04-26T11:59:45.107Z,2.87
2023-04-26T12:02:12.620Z,2.83
2023-04-26T12:04:40.963Z,3.37
2023-04-26T12:07:08.497Z,3.33
2023-04-26T12:09:36.719Z,4.40
2023-04-26T12:12:06.818Z,2.30
2023-04-26T12:14:37.991Z,2.72
2023-04-26T12:17:06.316Z,2.70
2023-04-26T12:19:42.618Z,2.63
2023-04-26T12:22:09.916Z,2.63
2023-04-26T12:24:37.928Z,3.03
2023-04-26T12:27:07.029Z,3.38
2023-04-26T12:29:34.788Z,3.30
2023-04-26T12:32:02.611Z,2.88
2023-04-26T12:34:30.159Z,2.10
2023-04-26T12:36:57.742Z,2.47
2023-04-26T12:39:24.596Z,2.47
2023-04-26T12:41:51.871Z,2.45
2023-04-26T12:44:22.202Z,2.25
2023-04-26T12:46:49.844Z,2.72
2023-04-26T12:49:17.133Z,2.30
2023-04-26T12:51:44.438Z,2.83
2023-04-26T12:54:11.627Z,2.90
2023-04-26T12:56:43.781Z,2.97
2023-04-26T12:59:11.387Z,2.67
2023-04-26T13:01:38.618Z,3.22
2023-04-26T13:04:06.592Z,3.15
2023-04-26T13:06:34.192Z,2.55
2023-04-26T13:09:02.748Z,3.10
2023-04-26T13:11:29.974Z,2.80
2023-04-26T13:13:57.152Z,2.60
2023-04-26T13:16:24.370Z,3.30
2023-04-26T13:18:51.695Z,2.97
2023-04-26T13:21:21.688Z,3.30
2023-04-26T13:23:49.126Z,3.50
2023-04-26T13:26:20.659Z,3.27
2023-04-26T13:28:50.225Z,2.90
2023-04-26T13:31:20.731Z,3.60
2023-04-26T13:33:49.775Z,2.80
2023-04-26T13:36:17.247Z,3.33
2023-04-26T13:38:45.217Z,3.40
2023-04-26T13:41:12.472Z,4.37
2023-04-26T13:43:39.691Z,3.40
2023-04-26T13:46:06.889Z,3.20
2023-04-26T13:48:34.091Z,3.60
2023-04-26T13:51:01.361Z,4.80
2023-04-26T13:53:28.583Z,3.50
2023-04-26T13:55:55.880Z,2.83
2023-04-26T13:58:23.184Z,3.40
2023-04-26T14:00:50.485Z,3.20
2023-04-26T14:03:17.745Z,3.50
2023-04-26T14:05:45.090Z,3.40
2023-04-26T14:08:12.740Z,3.40
2023-04-26T14:10:40.052Z,3.07
2023-04-26T14:13:07.231Z,3.07
2023-04-26T14:15:34.426Z,3.30
2023-04-26T14:18:01.720Z,4.03
2023-04-26T14:20:28.943Z,3.33
2023-04-26T14:22:56.318Z,3.60
2023-04-26T14:25:23.513Z,3.87
2023-04-26T14:27:53.031Z,4.03
2023-04-26T14:30:20.983Z,3.60
2023-04-26T14:32:49.884Z,4.00
2023-04-26T14:35:17.090Z,3.93
2023-04-26T14:37:44.299Z,5.30
2023-04-26T14:40:11.908Z,5.70
2023-04-26T14:42:44.321Z,4.27
2023-04-26T14:45:11.578Z,4.20
2023-04-26T14:47:39.165Z,3.30
2023-04-26T14:50:07.908Z,3.80
2023-04-26T14:52:35.993Z,3.50
2023-04-26T14:55:03.655Z,6.77
2023-04-26T14:57:31.560Z,3.90
2023-04-26T15:00:06.714Z,3.40
2023-04-26T15:02:34.381Z,3.17
2023-04-26T15:05:03.791Z,4.00
2023-04-26T15:07:32.798Z,3.57
2023-04-26T15:10:01.585Z,3.40
2023-04-26T15:12:28.905Z,4.17
2023-04-26T15:14:56.254Z,4.23
2023-04-26T15:17:23.395Z,4.80
2023-04-26T15:19:50.640Z,4.27
2023-04-26T15:22:17.837Z,3.93
2023-04-26T15:24:45.144Z,5.17
2023-04-26T15:27:12.730Z,3.00
2023-04-26T15:29:39.934Z,3.60
2023-04-26T15:32:07.102Z,4.43
2023-04-26T15:34:40.129Z,3.50
2023-04-26T15:37:07.392Z,4.23
2023-04-26T15:39:34.562Z,4.63
2023-04-26T15:42:02.460Z,4.37
2023-04-26T15:44:29.682Z,3.60
2023-04-26T15:46:57.104Z,3.30
2023-04-26T15:49:24.915Z,3.67
2023-04-26T15:51:52.376Z,3.73
2023-04-26T15:54:20.075Z,3.50
2023-04-26T15:56:47.283Z,3.73
2023-04-26T15:59:14.604Z,4.27
2023-04-26T16:01:42.037Z,3.50
2023-04-26T16:04:10.193Z,3.50
2023-04-26T16:06:38.014Z,3.97
2023-04-26T16:09:23.229Z,3.33
2023-04-26T16:11:52.263Z,3.70
2023-04-26T16:14:19.473Z,3.93
2023-04-26T16:16:46.654Z,3.60
2023-04-26T16:19:13.957Z,3.47
2023-04-26T16:21:41.261Z,3.70
2023-04-26T16:24:09.401Z,4.20
2023-04-26T16:26:36.901Z,3.57
2023-04-26T16:29:04.434Z,4.20
2023-04-26T16:31:32.361Z,3.57
2023-04-26T16:33:59.904Z,3.23
2023-04-26T16:36:27.420Z,3.50
2023-04-26T16:38:55.346Z,4.57
2023-04-26T16:41:23.688Z,4.23
2023-04-26T16:43:52.957Z,4.50
2023-04-26T16:46:20.624Z,4.20
2023-04-26T16:48:47.841Z,3.70
2023-04-26T16:51:15.062Z,4.93
2023-04-26T16:53:42.507Z,4.20
2023-04-26T16:56:09.840Z,4.13
2023-04-26T16:58:37.496Z,4.20
2023-04-26T17:01:04.918Z,4.23
2023-04-26T17:03:32.272Z,4.17
2023-04-26T17:06:00.112Z,4.27
2023-04-26T17:08:27.481Z,3.83
2023-04-26T17:10:54.678Z,4.00
2023-04-26T17:13:21.933Z,4.37
2023-04-26T17:15:49.662Z,4.03
2023-04-26T17:18:16.841Z,4.80
2023-04-26T17:20:44.099Z,4.80
2023-04-26T17:23:11.893Z,4.43
2023-04-26T17:25:39.285Z,4.07
2023-04-26T17:28:06.601Z,4.00
2023-04-26T17:30:33.873Z,4.13
2023-04-26T17:33:01.298Z,4.40
2023-04-26T17:35:28.609Z,4.30
2023-04-26T17:37:56.192Z,4.60
2023-04-26T17:40:23.439Z,3.67
2023-04-26T17:42:51.015Z,4.17
2023-04-26T17:45:18.434Z,4.03
2023-04-26T17:47:46.088Z,4.27
2023-04-26T17:50:13.615Z,3.97
2023-04-26T17:52:40.813Z,4.17
2023-04-26T17:55:10.034Z,4.07
2023-04-26T17:57:37.476Z,3.90
2023-04-26T18:00:06.703Z,4.40
2023-04-26T18:02:34.123Z,4.17
2023-04-26T18:05:01.606Z,3.80
2023-04-26T18:07:28.927Z,3.73
2023-04-26T18:09:56.226Z,4.60
2023-04-26T18:12:23.447Z,5.13
2023-04-26T18:14:51.619Z,3.93
2023-04-26T18:17:19.382Z,4.03
2023-04-26T18:19:46.649Z,5.00
2023-04-26T18:22:13.836Z,5.67
2023-04-26T18:24:41.032Z,4.10
2023-04-26T18:27:11.002Z,4.20
2023-04-26T18:29:38.161Z,4.30
2023-04-26T18:32:05.496Z,3.80
2023-04-26T18:34:32.686Z,3.97
2023-04-26T18:36:59.825Z,4.90
2023-04-26T18:39:26.977Z,5.00
2023-04-26T18:41:54.168Z,4.27
2023-04-26T18:44:21.386Z,4.60
2023-04-26T18:46:48.798Z,5.13
2023-04-26T18:49:16.312Z,4.10
2023-04-26T18:51:44.371Z,4.10
2023-04-26T18:54:11.615Z,5.50
2023-04-26T18:56:39.511Z,4.30
2023-04-26T18:59:06.668Z,4.47
2023-04-26T19:01:34.128Z,5.70
2023-04-26T19:04:01.521Z,4.93
2023-04-26T19:06:28.959Z,4.40
2023-04-26T19:08:56.374Z,4.10
2023-04-26T19:11:23.494Z,4.53
2023-04-26T19:13:50.667Z,4.70
2023-04-26T19:16:19.099Z,6.80
2023-04-26T19:18:47.322Z,5.37
2023-04-26T19:21:14.509Z,5.03
2023-04-26T19:23:41.645Z,8.13
2023-04-26T19:26:11.999Z,6.50
2023-04-26T19:28:39.181Z,6.13
2023-04-26T19:31:06.402Z,5.93
2023-04-26T19:33:33.611Z,5.63
2023-04-26T19:36:00.942Z,5.70
2023-04-26T19:38:28.142Z,6.73
2023-04-26T19:40:55.410Z,5.00
2023-04-26T19:43:22.663Z,5.77
2023-04-26T19:45:49.862Z,4.93
2023-04-26T19:48:17.068Z,5.07
2023-04-26T19:50:45.799Z,6.07
2023-04-26T19:53:14.145Z,6.53
2023-04-26T19:55:42.180Z,5.00
2023-04-26T19:58:10.700Z,5.00
2023-04-26T20:00:39.017Z,4.90
2023-04-26T20:03:06.691Z,5.43
2023-04-26T20:05:34.286Z,5.27
2023-04-26T20:08:01.765Z,8.57
2023-04-26T20:10:32.550Z,7.70
2023-04-26T20:13:00.638Z,6.17
2023-04-26T20:15:28.139Z,6.27
2023-04-26T20:17:55.581Z,6.17
2023-04-26T20:20:22.910Z,5.20
2023-04-26T20:22:50.394Z,5.53
2023-04-26T20:25:19.971Z,5.57
2023-04-26T20:27:47.384Z,6.43
2023-04-26T20:30:15.009Z,7.43
2023-04-26T20:32:42.457Z,8.50
2023-04-26T20:35:10.061Z,7.03
2023-04-26T20:37:37.354Z,7.33
2023-04-26T20:40:05.112Z,7.07
2023-04-26T20:42:32.309Z,6.53
2023-04-26T20:45:01.346Z,5.90
2023-04-26T20:47:29.544Z,5.57
2023-04-26T20:49:56.838Z,5.30
2023-04-26T20:52:24.026Z,6.37
2023-04-26T20:54:51.186Z,4.90
2023-04-26T20:57:18.483Z,5.20
2023-04-26T20:59:46.294Z,5.53
2023-04-26T21:02:13.616Z,7.63
2023-04-26T21:04:42.804Z,5.97
2023-04-26T21:07:10.501Z,4.90
2023-04-26T21:09:37.771Z,5.20
2023-04-26T21:12:05.276Z,4.97
2023-04-26T21:14:32.595Z,5.70
2023-04-26T21:17:01.161Z,14.20
2023-04-26T21:19:28.372Z,5.90
2023-04-26T21:21:55.706Z,5.57
2023-04-26T21:24:22.931Z,16.50
2023-04-26T21:26:52.611Z,6.57
2023-04-26T21:29:20.105Z,5.10
2023-04-26T21:31:47.384Z,5.40
2023-04-26T21:34:14.702Z,5.60
2023-04-26T21:36:41.821Z,5.60
2023-04-26T21:39:09.988Z,5.43
2023-04-26T21:41:37.451Z,5.03
2023-04-26T21:44:04.646Z,5.33
2023-04-26T21:46:32.077Z,5.27
2023-04-26T21:48:59.719Z,5.13
2023-04-26T21:51:27.836Z,5.40
2023-04-26T21:53:55.135Z,5.63
2023-04-26T21:56:22.276Z,5.63
2023-04-26T21:58:49.591Z,7.03
2023-04-26T22:01:16.903Z,6.57
2023-04-26T22:03:44.188Z,5.83
2023-04-26T22:06:12.129Z,5.67
2023-04-26T22:08:39.298Z,5.07
2023-04-26T22:11:06.986Z,5.27
2023-04-26T22:13:34.169Z,5.03
2023-04-26T22:16:01.940Z,4.90
2023-04-26T22:18:29.442Z,5.63
2023-04-26T22:20:56.755Z,4.37
2023-04-26T22:23:23.939Z,5.40
2023-04-26T22:25:51.111Z,4.60
2023-04-26T22:28:18.450Z,5.27
2023-04-26T22:30:46.662Z,4.67
2023-04-26T22:33:13.858Z,5.73
2023-04-26T22:35:41.054Z,6.07
2023-04-26T22:38:08.198Z,5.47
2023-04-26T22:40:36.298Z,4.57
2023-04-26T22:43:03.460Z,5.73
2023-04-26T22:45:30.637Z,6.10
2023-04-26T22:47:57.896Z,5.67
2023-04-26T22:50:35.773Z,6.07
2023-04-26T22:53:03.159Z,8.00
2023-04-26T22:55:30.949Z,6.37
2023-04-26T22:57:58.164Z,6.30
2023-04-26T23:00:25.961Z,6.90
2023-04-26T23:02:53.482Z,6.50
2023-04-26T23:05:20.704Z,6.57
2023-04-26T23:07:47.974Z,7.73
2023-04-26T23:10:15.253Z,7.20
2023-04-26T23:12:43.615Z,6.13
2023-04-26T23:15:11.736Z,5.93
2023-04-26T23:17:39.097Z,6.90
2023-04-26T23:20:11.996Z,6.07
2023-04-26T23:22:43.084Z,8.30
2023-04-26T23:25:10.752Z,9.47
2023-04-26T23:27:38.594Z,7.80
2023-04-26T23:30:06.222Z,6.63
2023-04-26T23:32:33.451Z,7.20
2023-04-26T23:35:01.010Z,6.37
2023-04-26T23:37:28.299Z,6.30
2023-04-26T23:39:55.886Z,6.00
2023-04-26T23:42:23.202Z,6.87
2023-04-26T23:44:50.503Z,5.30
2023-04-26T23:47:17.676Z,6.03
2023-04-26T23:49:44.808Z,5.80
2023-04-26T23:52:12.228Z,6.23
2023-04-26T23:54:39.363Z,5.87
2023-04-26T23:57:06.569Z,6.33
2023-04-26T23:59:33.708Z,6.37
